Time;durP1;ratioP1;P1;durP2;ratioP2;P2;SDS_P1;SDS_P2;PMS_P1;PMS_P2;Temp;Humidity;BMP_temperature;BMP_pressure;BME280_temperature;BME280_humidity;BME280_pressure;Samples;Min_cycle;Max_cycle;Signal;HPM_P1;HPM_P2
2021/10/16 00:00:46;;;;;;;0.88;0.88;;;23.10;66.00;;;;;;5105425;28;20027;-37
2021/10/16 00:03:12;;;;;;;1.10;1.00;;;23.10;66.10;;;;;;5105326;28;20021;-37
2021/10/16 00:05:38;;;;;;;1.20;1.10;;;23.10;66.10;;;;;;5104523;28;20066;-36
2021/10/16 00:08:05;;;;;;;1.05;0.95;;;23.10;66.20;;;;;;5095754;28;20083;-37
2021/10/16 00:10:31;;;;;;;1.05;1.00;;;23.10;66.30;;;;;;5084724;28;20039;-37
2021/10/16 00:12:58;;;;;;;1.10;1.00;;;23.10;66.40;;;;;;5084824;28;20119;-37
2021/10/16 00:15:25;;;;;;;1.60;1.08;;;23.10;66.40;;;;;;5084728;28;20045;-36
2021/10/16 00:17:51;;;;;;;0.98;0.90;;;23.10;66.40;;;;;;5097982;28;20035;-37
2021/10/16 00:20:17;;;;;;;1.02;1.00;;;23.10;66.40;;;;;;5104328;28;20066;-36
2021/10/16 00:22:44;;;;;;;1.23;0.90;;;23.10;66.40;;;;;;5104888;28;20036;-37
2021/10/16 00:25:10;;;;;;;1.23;1.10;;;23.10;66.40;;;;;;5104559;28;20048;-37
2021/10/16 00:27:36;;;;;;;1.13;1.02;;;23.10;66.40;;;;;;5104693;28;20039;-38
2021/10/16 00:30:02;;;;;;;0.80;0.80;;;23.20;66.50;;;;;;5104493;28;20045;-37
2021/10/16 00:32:29;;;;;;;0.90;0.90;;;23.20;66.50;;;;;;5086350;28;20567;-37
2021/10/16 00:34:55;;;;;;;0.98;0.98;;;23.20;66.60;;;;;;5104717;28;20024;-37
2021/10/16 00:37:24;;;;;;;1.10;1.00;;;23.20;66.70;;;;;;5103041;28;20052;-37
2021/10/16 00:39:52;;;;;;;1.05;1.00;;;23.20;66.70;;;;;;5103937;28;20016;-36
2021/10/16 00:42:18;;;;;;;1.17;1.08;;;23.20;66.80;;;;;;5104494;28;20713;-36
2021/10/16 00:44:45;;;;;;;1.50;1.20;;;23.20;66.90;;;;;;5104382;28;20072;-36
2021/10/16 00:47:11;;;;;;;1.15;1.05;;;23.20;67.00;;;;;;5104129;28;20043;-37
2021/10/16 00:49:37;;;;;;;1.40;1.30;;;23.20;67.10;;;;;;5103978;28;20024;-37
2021/10/16 00:52:03;;;;;;;1.10;1.00;;;23.20;67.10;;;;;;5104059;28;20070;-37
2021/10/16 00:54:29;;;;;;;1.20;1.10;;;23.20;67.10;;;;;;5104265;28;20361;-36
2021/10/16 00:56:56;;;;;;;1.25;1.15;;;23.20;67.10;;;;;;5104058;28;20052;-37
2021/10/16 00:59:22;;;;;;;1.10;1.00;;;23.20;67.00;;;;;;5102618;28;20038;-37
2021/10/16 01:01:48;;;;;;;1.23;1.13;;;23.20;66.90;;;;;;5102773;28;20070;-37
2021/10/16 01:04:15;;;;;;;3.30;1.10;;;23.20;66.80;;;;;;5103968;28;20547;-37
2021/10/16 01:06:41;;;;;;;1.40;1.17;;;23.20;66.80;;;;;;5103643;28;20048;-37
2021/10/16 01:09:10;;;;;;;1.10;1.00;;;23.20;66.80;;;;;;5103711;28;20051;-37
2021/10/16 01:11:49;;;;;;;1.10;1.00;;;23.20;66.70;;;;;;5103831;28;20021;-37
2021/10/16 01:14:15;;;;;;;1.20;1.10;;;23.20;66.80;;;;;;5102307;28;20024;-37
2021/10/16 01:16:42;;;;;;;1.20;1.10;;;23.20;66.80;;;;;;5103800;28;20024;-37
2021/10/16 01:19:15;;;;;;;1.58;1.23;;;23.20;67.00;;;;;;5102090;28;20646;-38
2021/10/16 01:21:43;;;;;;;1.17;1.08;;;23.20;67.10;;;;;;5103371;28;20036;-37
2021/10/16 01:24:13;;;;;;;1.10;1.00;;;23.20;67.20;;;;;;5103735;28;20024;-37
2021/10/16 01:26:43;;;;;;;1.20;1.10;;;23.20;67.30;;;;;;5103424;28;20040;-37
2021/10/16 01:29:10;;;;;;;1.25;1.15;;;23.20;67.40;;;;;;5103206;28;20024;-37
2021/10/16 01:31:37;;;;;;;1.30;1.20;;;23.20;67.40;;;;;;5102043;28;20028;-37
2021/10/16 01:34:03;;;;;;;1.00;1.00;;;23.20;67.50;;;;;;5103426;28;20032;-37
2021/10/16 01:36:43;;;;;;;1.73;1.10;;;23.20;67.50;;;;;;5103192;28;20063;-37
2021/10/16 01:39:09;;;;;;;1.42;1.30;;;23.20;67.50;;;;;;5102104;28;20035;-37
2021/10/16 01:41:36;;;;;;;1.20;1.10;;;23.20;67.40;;;;;;5101861;28;20069;-37
2021/10/16 01:44:06;;;;;;;1.00;1.00;;;23.20;67.40;;;;;;5103287;28;20028;-37
2021/10/16 01:46:33;;;;;;;1.27;1.17;;;23.20;67.40;;;;;;5103081;28;20119;-37
2021/10/16 01:48:59;;;;;;;1.73;1.30;;;23.20;67.30;;;;;;5103320;28;20035;-36
2021/10/16 01:51:25;;;;;;;1.13;1.02;;;23.20;67.30;;;;;;5102643;28;20027;-37
2021/10/16 01:53:51;;;;;;;1.25;1.15;;;23.20;67.30;;;;;;5103214;28;20017;-37
2021/10/16 01:56:18;;;;;;;1.30;1.20;;;23.20;67.20;;;;;;5102979;28;20027;-37
2021/10/16 01:58:45;;;;;;;1.30;1.20;;;23.20;67.30;;;;;;5087628;28;20029;-37
2021/10/16 02:01:11;;;;;;;1.80;1.40;;;23.20;67.30;;;;;;5082862;28;20111;-37
2021/10/16 02:03:37;;;;;;;1.42;1.33;;;23.20;67.40;;;;;;5082533;28;20021;-37
2021/10/16 02:06:03;;;;;;;1.35;1.25;;;23.20;67.50;;;;;;5082353;28;20060;-37
2021/10/16 02:08:29;;;;;;;2.45;1.50;;;23.20;67.60;;;;;;5082622;28;20032;-37
2021/10/16 02:10:55;;;;;;;1.80;1.48;;;23.20;67.70;;;;;;5082378;28;20024;-37
2021/10/16 02:13:21;;;;;;;1.55;1.45;;;23.20;67.70;;;;;;5089195;28;20019;-37
2021/10/16 02:15:47;;;;;;;1.63;1.50;;;23.20;67.50;;;;;;5102880;28;20035;-37
2021/10/16 02:18:14;;;;;;;2.00;1.63;;;23.20;67.60;;;;;;5102780;28;20031;-37
2021/10/16 02:20:40;;;;;;;2.10;1.50;;;23.20;67.50;;;;;;5102375;28;20047;-37
2021/10/16 02:23:06;;;;;;;1.70;1.60;;;23.20;67.30;;;;;;5102708;28;20036;-37
2021/10/16 02:25:32;;;;;;;1.73;1.58;;;23.20;67.30;;;;;;5102350;28;20105;-37
2021/10/16 02:27:58;;;;;;;1.42;1.30;;;23.20;67.30;;;;;;5102717;28;20095;-37
2021/10/16 02:30:24;;;;;;;1.65;1.55;;;23.20;67.20;;;;;;5102408;28;20024;-36
2021/10/16 02:32:50;;;;;;;1.40;1.20;;;23.20;67.10;;;;;;5102157;28;20034;-37
2021/10/16 02:35:16;;;;;;;1.48;1.38;;;23.20;67.10;;;;;;5102303;28;20136;-37
2021/10/16 02:37:42;;;;;;;1.40;1.30;;;23.20;67.00;;;;;;5102491;28;20028;-37
2021/10/16 02:40:09;;;;;;;1.60;1.50;;;23.20;67.10;;;;;;5102454;28;20049;-37
2021/10/16 02:42:35;;;;;;;2.45;1.60;;;23.10;67.10;;;;;;5102469;28;20042;-37
2021/10/16 02:45:02;;;;;;;1.60;1.50;;;23.20;67.20;;;;;;5102776;28;20076;-37
2021/10/16 02:47:31;;;;;;;1.37;1.27;;;23.20;67.20;;;;;;5102374;28;20056;-37
2021/10/16 02:49:59;;;;;;;1.50;1.40;;;23.10;67.10;;;;;;5102551;28;20028;-37
2021/10/16 02:52:25;;;;;;;1.75;1.52;;;23.10;67.20;;;;;;5101962;28;20562;-37
2021/10/16 02:54:52;;;;;;;1.30;1.20;;;23.10;67.10;;;;;;5102342;28;20051;-37
2021/10/16 02:57:18;;;;;;;1.70;1.60;;;23.10;67.10;;;;;;5102418;28;20059;-37
2021/10/16 02:59:44;;;;;;;1.73;1.40;;;23.10;67.10;;;;;;5102425;28;20032;-37
2021/10/16 03:02:10;;;;;;;1.50;1.40;;;23.10;67.00;;;;;;5102159;28;20031;-36
2021/10/16 03:04:36;;;;;;;1.60;1.50;;;23.10;67.00;;;;;;5102327;28;20121;-37
2021/10/16 03:07:02;;;;;;;1.40;1.30;;;23.10;67.00;;;;;;5101924;28;20048;-37
2021/10/16 03:09:29;;;;;;;2.25;2.00;;;23.10;67.00;;;;;;5102681;28;20032;-37
2021/10/16 03:11:55;;;;;;;1.58;1.40;;;23.10;66.90;;;;;;5105512;28;20035;-37
2021/10/16 03:14:21;;;;;;;1.40;1.30;;;23.10;67.00;;;;;;5106186;28;20149;-37
2021/10/16 03:16:49;;;;;;;1.60;1.50;;;23.10;67.00;;;;;;5106003;28;20486;-37
2021/10/16 03:19:16;;;;;;;1.70;1.60;;;23.00;66.90;;;;;;5105903;28;20036;-37
2021/10/16 03:21:42;;;;;;;1.70;1.60;;;23.00;67.00;;;;;;5105507;28;20028;-37
2021/10/16 03:24:08;;;;;;;1.83;1.58;;;23.00;67.00;;;;;;5105864;28;20060;-37
2021/10/16 03:26:34;;;;;;;2.10;1.50;;;23.00;67.00;;;;;;5105883;28;20777;-37
2021/10/16 03:29:00;;;;;;;1.50;1.40;;;23.00;67.10;;;;;;5105917;28;20025;-37
2021/10/16 03:31:26;;;;;;;2.03;1.58;;;23.00;67.10;;;;;;5105435;28;20468;-37
2021/10/16 03:33:53;;;;;;;1.52;1.42;;;23.00;67.10;;;;;;5105164;28;20099;-36
2021/10/16 03:36:19;;;;;;;1.63;1.53;;;23.00;67.10;;;;;;5105518;28;20059;-38
2021/10/16 03:38:45;;;;;;;1.55;1.40;;;23.00;67.10;;;;;;5105610;28;20023;-37
2021/10/16 03:41:11;;;;;;;2.25;1.60;;;23.00;67.10;;;;;;5105280;28;20024;-37
2021/10/16 03:43:37;;;;;;;1.50;1.40;;;23.00;67.20;;;;;;5105549;28;20084;-37
2021/10/16 03:46:03;;;;;;;1.85;1.38;;;23.00;67.20;;;;;;5105419;28;20055;-37
2021/10/16 03:48:30;;;;;;;2.25;1.65;;;23.00;67.30;;;;;;5105440;28;20091;-37
2021/10/16 03:50:56;;;;;;;2.33;1.58;;;22.90;67.20;;;;;;5105177;28;20508;-37
2021/10/16 03:53:22;;;;;;;1.65;1.55;;;22.90;67.20;;;;;;5090761;28;20024;-37
2021/10/16 03:55:48;;;;;;;2.75;1.60;;;22.90;67.20;;;;;;5084845;28;20032;-37
2021/10/16 03:58:14;;;;;;;2.85;1.55;;;22.90;67.30;;;;;;5084889;28;20051;-37
2021/10/16 04:00:41;;;;;;;1.60;1.50;;;22.90;67.30;;;;;;5084788;28;20740;-37
2021/10/16 04:03:07;;;;;;;1.40;1.30;;;22.90;67.30;;;;;;5084509;28;20031;-37
2021/10/16 04:05:33;;;;;;;1.77;1.60;;;22.90;67.30;;;;;;5084758;28;20104;-37
2021/10/16 04:08:00;;;;;;;2.33;1.33;;;22.90;67.30;;;;;;5084664;28;20067;-37
2021/10/16 04:10:26;;;;;;;1.60;1.50;;;22.90;67.40;;;;;;5084714;28;20468;-37
2021/10/16 04:12:52;;;;;;;2.55;1.52;;;22.90;67.40;;;;;;5103938;28;20024;-37
2021/10/16 04:15:18;;;;;;;1.60;1.50;;;22.80;67.40;;;;;;5104897;28;20032;-37
2021/10/16 04:17:48;;;;;;;1.88;1.73;;;22.80;67.50;;;;;;5104795;28;20031;-37
2021/10/16 04:20:14;;;;;;;1.90;1.70;;;22.80;67.40;;;;;;5104549;28;20019;-37
2021/10/16 04:22:41;;;;;;;2.13;1.63;;;22.80;67.50;;;;;;5100761;28;20024;-37
2021/10/16 04:25:07;;;;;;;1.70;1.60;;;22.80;67.50;;;;;;5104565;28;20493;-37
2021/10/16 04:27:33;;;;;;;2.25;1.70;;;22.80;66.80;;;;;;5104071;28;20040;-37
2021/10/16 04:29:59;;;;;;;1.70;1.60;;;22.80;67.60;;;;;;5104619;28;20039;-37
2021/10/16 04:32:26;;;;;;;1.80;1.70;;;22.80;67.60;;;;;;5103894;28;20016;-37
2021/10/16 04:34:52;;;;;;;2.35;1.90;;;22.80;67.60;;;;;;5104603;28;20099;-37
2021/10/16 04:37:18;;;;;;;2.03;1.70;;;22.80;67.60;;;;;;5104196;28;20024;-37
2021/10/16 04:39:44;;;;;;;1.55;1.45;;;22.80;67.60;;;;;;5104313;28;20043;-37
2021/10/16 04:42:12;;;;;;;2.08;1.70;;;22.70;67.60;;;;;;5104114;28;20105;-36
2021/10/16 04:44:39;;;;;;;1.73;1.63;;;22.70;67.60;;;;;;5104160;28;20047;-37
2021/10/16 04:47:05;;;;;;;2.00;1.80;;;22.70;67.60;;;;;;5103966;28;20028;-37
2021/10/16 04:49:34;;;;;;;1.70;1.60;;;22.70;67.70;;;;;;5104321;28;20028;-37
2021/10/16 04:52:01;;;;;;;1.65;1.55;;;22.70;67.70;;;;;;5102167;28;20033;-37
2021/10/16 04:54:27;;;;;;;1.90;1.80;;;22.70;67.70;;;;;;5102971;28;20023;-37
2021/10/16 04:56:53;;;;;;;1.55;1.45;;;22.70;67.80;;;;;;5104035;28;20028;-37
2021/10/16 04:59:20;;;;;;;2.05;1.85;;;22.70;67.80;;;;;;5103939;28;20024;-37
2021/10/16 05:01:46;;;;;;;1.95;1.85;;;22.70;67.80;;;;;;5103959;28;20020;-37
2021/10/16 05:04:12;;;;;;;1.90;1.70;;;22.70;67.90;;;;;;5103681;28;20024;-37
2021/10/16 05:06:38;;;;;;;1.80;1.48;;;22.70;67.90;;;;;;5103368;28;20664;-36
2021/10/16 05:09:04;;;;;;;1.90;1.80;;;22.60;67.90;;;;;;5103878;28;20043;-37
2021/10/16 05:11:30;;;;;;;2.03;1.83;;;22.60;67.90;;;;;;5102292;28;20364;-37
2021/10/16 05:13:56;;;;;;;1.80;1.70;;;22.60;67.90;;;;;;5103429;28;20034;-37
2021/10/16 05:16:22;;;;;;;1.70;1.60;;;22.60;68.00;;;;;;5103664;28;20032;-37
2021/10/16 05:18:49;;;;;;;2.40;1.75;;;22.60;68.00;;;;;;5103566;28;20032;-37
2021/10/16 05:21:15;;;;;;;2.60;1.90;;;22.60;68.00;;;;;;5103265;28;20020;-37
2021/10/16 05:23:41;;;;;;;2.10;1.90;;;22.60;68.00;;;;;;5103315;28;20087;-37
2021/10/16 05:26:07;;;;;;;2.00;1.65;;;22.60;68.00;;;;;;5103222;28;20353;-37
2021/10/16 05:28:33;;;;;;;2.45;1.90;;;22.60;68.00;;;;;;5103309;28;20039;-37
2021/10/16 05:31:00;;;;;;;1.98;1.80;;;22.60;68.00;;;;;;5103374;28;20085;-37
2021/10/16 05:33:26;;;;;;;2.00;1.90;;;22.60;68.10;;;;;;5102473;28;20028;-37
2021/10/16 05:35:52;;;;;;;3.25;1.88;;;22.50;68.10;;;;;;5103257;28;20028;-37
2021/10/16 05:38:18;;;;;;;2.33;1.80;;;22.50;68.10;;;;;;5101724;28;20045;-36
2021/10/16 05:40:44;;;;;;;1.83;1.52;;;22.50;68.10;;;;;;5103370;28;20031;-37
2021/10/16 05:43:10;;;;;;;1.95;1.85;;;22.50;68.20;;;;;;5102840;28;20107;-37
2021/10/16 05:45:37;;;;;;;2.13;1.88;;;22.50;68.20;;;;;;5103099;28;20024;-37
2021/10/16 05:48:04;;;;;;;2.75;1.90;;;22.50;68.20;;;;;;5101964;28;20028;-37
2021/10/16 05:50:31;;;;;;;2.13;1.88;;;22.50;68.20;;;;;;5103049;28;20040;-37
2021/10/16 05:52:57;;;;;;;2.05;1.63;;;22.50;68.20;;;;;;5102709;28;20035;-37
2021/10/16 05:55:24;;;;;;;2.22;1.90;;;22.50;68.30;;;;;;5101548;28;20544;-37
2021/10/16 05:57:50;;;;;;;1.93;1.80;;;22.50;68.40;;;;;;5103139;28;20054;-37
2021/10/16 06:00:16;;;;;;;2.47;2.00;;;22.40;68.20;;;;;;5102779;28;20024;-37
2021/10/16 06:02:42;;;;;;;1.92;1.83;;;22.40;68.20;;;;;;5103004;28;20055;-37
2021/10/16 06:05:09;;;;;;;2.10;1.90;;;22.40;68.30;;;;;;5102527;28;20039;-36
2021/10/16 06:07:35;;;;;;;2.58;1.90;;;22.40;68.30;;;;;;5102646;28;20058;-37
2021/10/16 06:10:01;;;;;;;2.33;1.83;;;22.40;68.40;;;;;;5102806;28;20035;-37
2021/10/16 06:12:28;;;;;;;2.20;2.00;;;22.40;68.40;;;;;;5086435;28;20505;-37
2021/10/16 06:14:54;;;;;;;2.00;1.77;;;22.40;68.40;;;;;;5082372;28;20036;-37
2021/10/16 06:17:20;;;;;;;1.98;1.80;;;22.40;68.40;;;;;;5082430;28;20029;-37
2021/10/16 06:19:46;;;;;;;2.00;1.80;;;22.40;68.50;;;;;;5098512;28;20023;-37
2021/10/16 06:22:12;;;;;;;2.17;1.80;;;22.40;68.60;;;;;;5102584;28;20048;-37
2021/10/16 06:24:38;;;;;;;2.00;1.90;;;22.40;68.60;;;;;;5102325;28;20024;-37
2021/10/16 06:27:04;;;;;;;2.20;2.00;;;22.30;68.50;;;;;;5094487;28;20039;-37
2021/10/16 06:29:31;;;;;;;2.08;1.88;;;22.30;68.50;;;;;;5093344;28;20028;-36
2021/10/16 06:31:57;;;;;;;2.08;1.77;;;22.30;68.60;;;;;;5102730;28;20024;-37
2021/10/16 06:34:23;;;;;;;2.10;1.90;;;22.30;68.60;;;;;;5102469;28;20031;-37
2021/10/16 06:36:49;;;;;;;2.40;2.20;;;22.30;68.70;;;;;;5102011;28;20024;-37
2021/10/16 06:39:15;;;;;;;4.00;1.90;;;22.30;68.60;;;;;;5102729;28;20634;-37
2021/10/16 06:41:41;;;;;;;2.83;1.90;;;22.30;68.70;;;;;;5102343;28;20035;-36
2021/10/16 06:44:07;;;;;;;3.38;2.08;;;22.30;68.70;;;;;;5102370;28;20061;-37
2021/10/16 06:46:33;;;;;;;2.17;1.92;;;22.30;69.00;;;;;;5106474;28;20051;-37
2021/10/16 06:49:00;;;;;;;2.20;2.00;;;22.30;68.80;;;;;;5106562;28;20500;-37
2021/10/16 06:51:26;;;;;;;1.65;1.55;;;22.30;68.80;;;;;;5106436;28;20035;-37
2021/10/16 06:53:52;;;;;;;1.88;1.77;;;22.30;68.80;;;;;;5106372;28;20034;-37
2021/10/16 06:56:18;;;;;;;2.55;2.00;;;22.20;68.80;;;;;;5106332;28;20026;-37
2021/10/16 06:58:44;;;;;;;2.20;2.00;;;22.20;68.80;;;;;;5106647;28;20036;-37
2021/10/16 07:01:10;;;;;;;1.90;1.80;;;22.20;68.80;;;;;;5106402;28;20026;-37
2021/10/16 07:03:36;;;;;;;2.20;2.00;;;22.20;68.80;;;;;;5106157;28;20028;-37
2021/10/16 07:06:03;;;;;;;2.30;2.10;;;22.20;68.80;;;;;;5105775;28;20056;-37
2021/10/16 07:08:29;;;;;;;1.95;1.85;;;22.20;68.90;;;;;;5106155;28;20020;-37
2021/10/16 07:10:58;;;;;;;2.23;1.77;;;22.20;68.90;;;;;;5106121;28;20028;-36
2021/10/16 07:13:25;;;;;;;2.25;2.00;;;22.20;68.90;;;;;;5106142;28;20035;-37
2021/10/16 07:15:51;;;;;;;2.28;1.83;;;22.20;68.90;;;;;;5105815;28;20024;-37
2021/10/16 07:18:17;;;;;;;1.90;1.80;;;22.20;68.90;;;;;;5104642;28;20114;-37
2021/10/16 07:20:44;;;;;;;6.53;2.00;;;22.20;69.00;;;;;;5106078;28;20291;-36
2021/10/16 07:23:10;;;;;;;2.28;2.08;;;22.20;69.00;;;;;;5105887;28;20024;-37
2021/10/16 07:25:36;;;;;;;2.85;2.38;;;22.10;69.00;;;;;;5105526;28;20027;-37
2021/10/16 07:28:02;;;;;;;2.35;2.15;;;22.10;69.00;;;;;;5105990;28;20043;-37
2021/10/16 07:30:28;;;;;;;2.38;2.05;;;22.10;69.00;;;;;;5089894;28;20116;-37
2021/10/16 07:32:54;;;;;;;3.13;2.10;;;22.10;69.10;;;;;;5105867;28;20059;-37
2021/10/16 07:35:21;;;;;;;2.40;2.10;;;22.10;69.10;;;;;;5105562;28;20024;-37
2021/10/16 07:37:47;;;;;;;2.20;2.00;;;22.10;69.10;;;;;;5105536;28;20016;-37
2021/10/16 07:40:13;;;;;;;2.20;2.00;;;22.10;69.10;;;;;;5105645;28;20648;-37
2021/10/16 07:42:39;;;;;;;2.95;2.35;;;22.10;69.10;;;;;;5105478;28;20024;-37
2021/10/16 07:45:05;;;;;;;1.90;1.80;;;22.10;69.20;;;;;;5105519;28;20082;-37
2021/10/16 07:47:32;;;;;;;2.27;2.07;;;22.10;69.20;;;;;;5105558;28;20091;-38
2021/10/16 07:49:58;;;;;;;2.58;2.10;;;22.10;69.20;;;;;;5105375;28;20027;-37
2021/10/16 07:52:24;;;;;;;2.40;2.20;;;22.00;69.20;;;;;;5105255;28;20410;-37
2021/10/16 07:54:50;;;;;;;2.17;2.03;;;22.00;69.20;;;;;;5104945;28;20030;-37
2021/10/16 07:57:16;;;;;;;2.20;2.00;;;22.10;70.00;;;;;;5104346;28;20081;-37
2021/10/16 07:59:42;;;;;;;2.20;2.00;;;22.00;69.20;;;;;;5104907;28;20083;-37
2021/10/16 08:02:08;;;;;;;2.38;2.17;;;22.00;69.20;;;;;;5105294;28;20051;-37
2021/10/16 08:04:35;;;;;;;2.88;2.08;;;22.00;69.30;;;;;;5103837;28;20440;-37
2021/10/16 08:07:01;;;;;;;2.30;2.10;;;22.00;69.30;;;;;;5104570;28;20052;-37
2021/10/16 08:09:27;;;;;;;2.40;2.20;;;22.00;69.30;;;;;;5103747;28;20020;-37
2021/10/16 08:11:53;;;;;;;2.35;2.15;;;22.00;69.40;;;;;;5104928;28;20031;-37
2021/10/16 08:14:19;;;;;;;2.83;1.92;;;22.00;69.40;;;;;;5104965;28;20024;-37
2021/10/16 08:16:45;;;;;;;2.33;2.13;;;22.00;69.40;;;;;;5104696;28;20050;-37
2021/10/16 08:19:11;;;;;;;3.00;2.10;;;22.00;69.40;;;;;;5101193;28;20020;-37
2021/10/16 08:21:37;;;;;;;2.20;2.00;;;21.90;69.40;;;;;;5104541;28;20035;-37
2021/10/16 08:24:04;;;;;;;2.15;2.03;;;21.90;69.40;;;;;;5104763;28;20024;-37
2021/10/16 08:26:30;;;;;;;2.10;1.90;;;22.00;69.50;;;;;;5104276;28;20096;-37
2021/10/16 08:28:56;;;;;;;3.63;2.38;;;21.90;69.50;;;;;;5104567;28;20432;-36
2021/10/16 08:31:22;;;;;;;2.55;1.98;;;21.90;69.50;;;;;;5104654;28;20048;-37
2021/10/16 08:33:49;;;;;;;2.88;1.90;;;21.90;69.50;;;;;;5104531;28;20026;-37
2021/10/16 08:36:15;;;;;;;2.20;2.00;;;21.90;69.60;;;;;;5104151;28;20032;-36
2021/10/16 08:38:41;;;;;;;2.47;2.25;;;21.90;69.50;;;;;;5104415;28;20028;-37
2021/10/16 08:41:11;;;;;;;2.47;2.10;;;21.90;69.60;;;;;;5103065;28;20110;-37
2021/10/16 08:43:37;;;;;;;2.83;2.40;;;21.90;69.60;;;;;;5104005;28;20027;-37
2021/10/16 08:46:03;;;;;;;2.67;2.47;;;21.90;69.70;;;;;;5104086;28;20032;-37
2021/10/16 08:48:30;;;;;;;2.45;1.92;;;21.90;69.60;;;;;;5104341;28;20028;-37
2021/10/16 08:50:57;;;;;;;2.35;2.15;;;21.80;69.60;;;;;;5104246;28;20035;-37
2021/10/16 08:53:23;;;;;;;2.42;2.22;;;21.80;69.70;;;;;;5103947;28;20039;-36
2021/10/16 08:55:50;;;;;;;2.25;2.08;;;21.80;69.60;;;;;;5103746;28;20563;-37
2021/10/16 08:58:16;;;;;;;2.63;2.17;;;21.80;69.70;;;;;;5102655;28;20024;-37
2021/10/16 09:00:43;;;;;;;4.43;2.35;;;21.80;69.70;;;;;;5103812;28;20027;-36
2021/10/16 09:03:29;;;;;;;1.87;1.77;;;21.80;69.70;;;;;;5103948;28;20024;-36
2021/10/16 09:06:12;;;;;;;2.53;2.10;;;21.80;69.70;;;;;;5103309;28;20050;-37
2021/10/16 09:08:59;;;;;;;2.40;2.20;;;21.80;69.80;;;;;;5103711;28;20024;-37
2021/10/16 09:11:38;;;;;;;3.37;2.20;;;21.80;69.80;;;;;;5103943;28;20024;-37
2021/10/16 09:14:12;;;;;;;2.20;2.00;;;21.80;69.80;;;;;;5103740;28;20272;-37
2021/10/16 09:16:42;;;;;;;2.20;2.00;;;21.80;69.80;;;;;;5103331;28;20024;-37
2021/10/16 09:19:10;;;;;;;2.72;2.30;;;21.80;69.90;;;;;;5103653;28;20106;-37
2021/10/16 09:21:41;;;;;;;2.70;2.25;;;21.70;69.90;;;;;;5103618;28;20075;-37
2021/10/16 09:24:09;;;;;;;2.40;2.20;;;21.70;69.90;;;;;;5102233;28;20032;-37
2021/10/16 09:26:37;;;;;;;2.50;2.22;;;21.70;69.90;;;;;;5103243;28;20039;-37
2021/10/16 09:29:05;;;;;;;2.22;2.03;;;21.70;70.00;;;;;;5103387;28;20083;-37
2021/10/16 09:31:39;;;;;;;2.20;2.00;;;21.70;70.00;;;;;;5101806;28;20028;-37
2021/10/16 09:34:06;;;;;;;2.47;2.10;;;21.70;70.00;;;;;;5103388;28;20053;-37
2021/10/16 09:36:32;;;;;;;2.38;2.17;;;21.70;70.00;;;;;;5101802;28;20106;-37
2021/10/16 09:38:59;;;;;;;3.13;2.25;;;21.70;70.00;;;;;;5103134;28;20136;-37
2021/10/16 09:41:35;;;;;;;3.00;2.05;;;21.70;70.00;;;;;;5103233;28;20039;-37
2021/10/16 09:44:03;;;;;;;1.90;1.80;;;21.70;70.10;;;;;;5103231;28;20050;-37
2021/10/16 09:46:29;;;;;;;2.28;2.08;;;21.60;70.00;;;;;;5102904;28;20043;-37
2021/10/16 09:49:00;;;;;;;2.45;2.03;;;21.70;70.10;;;;;;5103105;28;20112;-37
2021/10/16 09:51:26;;;;;;;2.67;2.20;;;21.60;70.10;;;;;;5101819;28;20028;-37
2021/10/16 09:54:06;;;;;;;2.70;2.13;;;21.70;70.20;;;;;;5103006;28;20476;-37
2021/10/16 09:56:33;;;;;;;2.80;2.10;;;21.60;70.10;;;;;;5103002;28;20145;-37
2021/10/16 09:58:59;;;;;;;2.88;2.45;;;21.70;70.20;;;;;;5097149;28;20039;-37
2021/10/16 10:01:26;;;;;;;3.30;2.38;;;21.60;70.20;;;;;;5092422;28;20040;-36
2021/10/16 10:03:52;;;;;;;2.22;2.03;;;21.60;70.20;;;;;;5101643;28;20019;-37
2021/10/16 10:06:18;;;;;;;2.50;2.30;;;21.60;70.20;;;;;;5100914;28;20048;-37
2021/10/16 10:08:44;;;;;;;2.40;2.20;;;21.60;70.20;;;;;;5101524;28;20039;-36
2021/10/16 10:11:10;;;;;;;4.40;2.22;;;21.60;70.20;;;;;;5102997;28;20020;-37
2021/10/16 10:13:36;;;;;;;2.35;2.15;;;21.60;71.10;;;;;;5084676;28;20107;-37
2021/10/16 10:16:03;;;;;;;2.95;1.95;;;21.60;70.30;;;;;;5102926;28;20480;-44
2021/10/16 10:21:14;;;;;;;3.05;2.33;;;21.60;70.30;;;;;;5092704;28;20112;-36
2021/10/16 10:23:57;;;;;;;2.47;2.28;;;21.60;70.30;;;;;;5102474;28;20024;-37
2021/10/16 10:26:30;;;;;;;2.10;1.90;;;21.60;70.30;;;;;;5101064;28;20059;-37
2021/10/16 10:29:03;;;;;;;2.13;2.00;;;21.50;70.30;;;;;;5102507;28;20098;-37
2021/10/16 10:31:44;;;;;;;2.55;2.35;;;21.60;70.40;;;;;;5102745;28;20090;-37
2021/10/16 10:34:32;;;;;;;2.35;2.15;;;21.50;70.40;;;;;;5102941;28;20103;-37
2021/10/16 10:37:05;;;;;;;2.50;2.30;;;21.50;70.30;;;;;;5100911;28;20039;-37
2021/10/16 10:39:34;;;;;;;3.22;2.10;;;21.50;70.40;;;;;;5102681;28;20261;-37
2021/10/16 10:42:23;;;;;;;2.60;2.40;;;21.50;70.40;;;;;;5102325;28;20392;-37
2021/10/16 10:44:51;;;;;;;2.40;2.20;;;21.50;70.40;;;;;;5102680;28;20020;-37
2021/10/16 10:47:34;;;;;;;2.45;2.25;;;21.50;70.40;;;;;;5102289;28;20441;-36
2021/10/16 10:50:02;;;;;;;2.30;2.10;;;21.50;70.40;;;;;;5102597;28;20400;-37
2021/10/16 10:52:48;;;;;;;2.28;2.15;;;21.50;70.50;;;;;;5102382;28;20032;-37
2021/10/16 10:55:14;;;;;;;2.28;2.08;;;21.50;70.50;;;;;;5102377;28;20044;-37
2021/10/16 10:57:44;;;;;;;2.33;2.13;;;21.40;70.50;;;;;;5101965;28;20028;-37
2021/10/16 11:00:14;;;;;;;2.30;2.10;;;21.40;70.50;;;;;;5102567;28;20024;-37
2021/10/16 11:02:40;;;;;;;2.50;2.20;;;21.50;70.60;;;;;;5102453;28;20021;-37
2021/10/16 11:05:35;;;;;;;2.35;2.15;;;21.50;70.60;;;;;;5102244;28;20020;-37
2021/10/16 11:08:13;;;;;;;2.55;2.35;;;21.40;70.60;;;;;;5095040;28;20102;-37
2021/10/16 11:10:39;;;;;;;;;;;21.40;70.60;;;;;;5102994;28;20559;-37
2021/10/16 11:13:12;;;;;;;2.00;1.90;;;21.40;70.60;;;;;;5102256;28;19915;-37
2021/10/16 11:15:39;;;;;;;2.40;2.20;;;21.40;70.60;;;;;;5102346;28;20024;-37
2021/10/16 11:18:12;;;;;;;2.38;2.17;;;21.40;70.60;;;;;;5101991;28;20031;-37
2021/10/16 11:20:38;;;;;;;2.83;2.17;;;21.40;70.60;;;;;;5100971;28;20028;-37
2021/10/16 11:23:04;;;;;;;3.15;2.35;;;21.40;70.60;;;;;;5102134;28;20088;-37
2021/10/16 11:25:34;;;;;;;2.42;2.22;;;21.40;71.40;;;;;;5100844;28;20023;-37
2021/10/16 11:28:07;;;;;;;2.03;1.83;;;21.40;70.70;;;;;;5101911;28;20040;-37
2021/10/16 11:30:35;;;;;;;2.30;2.10;;;21.40;70.70;;;;;;5101978;28;20830;-37
2021/10/16 11:33:03;;;;;;;2.63;2.20;;;21.40;70.70;;;;;;5104890;28;20027;-36
2021/10/16 11:35:29;;;;;;;2.30;2.10;;;21.40;70.70;;;;;;5104428;28;20081;-37
2021/10/16 11:37:55;;;;;;;2.35;2.15;;;21.40;70.70;;;;;;5105191;28;20099;-37
2021/10/16 11:40:23;;;;;;;3.05;1.95;;;21.40;70.70;;;;;;5105779;28;20047;-37
2021/10/16 11:42:54;;;;;;;2.00;1.80;;;21.40;70.70;;;;;;5104361;28;20043;-37
2021/10/16 11:45:22;;;;;;;2.42;2.22;;;21.30;70.70;;;;;;5105584;28;20020;-37
2021/10/16 11:47:53;;;;;;;2.50;2.30;;;21.30;70.70;;;;;;5103978;28;20081;-37
2021/10/16 11:50:26;;;;;;;2.67;2.30;;;21.30;70.70;;;;;;5104116;28;20024;-37
2021/10/16 11:53:20;;;;;;;2.17;1.98;;;21.30;70.70;;;;;;5105350;28;20028;-37
2021/10/16 11:55:57;;;;;;;2.20;2.00;;;21.30;70.80;;;;;;5104074;28;20024;-37
2021/10/16 11:58:25;;;;;;;2.20;2.03;;;21.30;70.70;;;;;;5105092;28;20504;-37
2021/10/16 12:00:52;;;;;;;2.50;2.22;;;21.30;70.70;;;;;;5105382;28;20074;-37
2021/10/16 12:03:42;;;;;;;2.00;1.80;;;21.30;70.80;;;;;;5105320;28;20031;-36
2021/10/16 12:06:13;;;;;;;2.63;2.42;;;21.30;70.70;;;;;;5103473;28;20051;-36
2021/10/16 12:08:50;;;;;;;3.33;2.00;;;21.30;70.80;;;;;;5103257;28;20040;-37
2021/10/16 12:11:21;;;;;;;2.75;2.00;;;21.30;70.70;;;;;;5105084;28;20030;-37
2021/10/16 12:14:05;;;;;;;2.47;2.28;;;21.30;70.70;;;;;;5104410;28;20082;-37
2021/10/16 12:16:47;;;;;;;2.10;1.90;;;21.30;70.80;;;;;;5104468;28;20055;-37
2021/10/16 12:19:14;;;;;;;2.00;1.80;;;21.30;70.80;;;;;;5083156;28;20029;-37
2021/10/16 12:21:42;;;;;;;1.98;1.77;;;21.20;70.70;;;;;;5084598;28;20080;-37
2021/10/16 12:24:18;;;;;;;2.22;2.03;;;21.30;70.90;;;;;;5084445;28;20028;-37
2021/10/16 12:26:46;;;;;;;1.88;1.77;;;21.30;70.80;;;;;;5084305;28;20094;-37
2021/10/16 12:29:29;;;;;;;2.30;1.88;;;21.30;70.80;;;;;;5092476;28;20028;-37
2021/10/16 12:31:55;;;;;;;1.80;1.70;;;21.30;70.80;;;;;;5104911;28;20085;-37
2021/10/16 12:34:28;;;;;;;1.90;1.80;;;21.30;70.80;;;;;;5103416;28;20173;-37
2021/10/16 12:37:02;;;;;;;1.55;1.45;;;21.30;70.70;;;;;;5103842;28;20038;-36
2021/10/16 12:39:29;;;;;;;2.17;1.95;;;21.20;70.70;;;;;;5099731;28;20047;-37
2021/10/16 12:41:55;;;;;;;1.75;1.65;;;21.30;70.80;;;;;;5104462;28;20024;-36
2021/10/16 12:44:33;;;;;;;1.80;1.70;;;21.30;70.80;;;;;;5104233;28;20557;-37
2021/10/16 12:47:08;;;;;;;2.08;1.90;;;21.20;70.70;;;;;;5103067;28;20150;-37
2021/10/16 12:49:36;;;;;;;2.05;1.85;;;21.20;71.50;;;;;;5103952;28;20062;-37
2021/10/16 12:52:03;;;;;;;2.28;2.03;;;21.20;70.70;;;;;;5103750;28;20058;-37
2021/10/16 12:54:39;;;;;;;1.92;1.83;;;21.20;70.70;;;;;;5103042;28;20020;-37